LFRQ/UIP METAR and TAF weather

Enter ICAO airport designator
Station Type Date Time Source
LFRQ METAR 2022/06/28 09:00 UTC NOAA

LFRQ 280900Z AUTO 21010KT 9999 SCT027 OVC035 16/11 Q1019 NOSIG


Station Type Date Time Source
LFRQ Decoded METAR 2022/06/28 09:00 UTC NOAA

Quimper, France (LFRQ) 47-58N 004-10W 94M
Jun 28, 2022 - 05:00 AM EDT / 2022.06.28 0900 UTC
Wind: from the SSW (210 degrees) at 12 MPH (10 KT):0
Visibility: greater than 7 mile(s):0
Sky conditions: overcast
Temperature: 60 F (16 C)
Dew Point: 51 F (11 C)
Relative Humidity: 72%
Pressure (altimeter): 30.09 in. Hg (1019 hPa)
ob: LFRQ 280900Z AUTO 21010KT 9999 SCT027 OVC035 16/11 Q1019 NOSIG
cycle: 9

Station Type Date Time Source
LFRQ TAF 2022/06/28 06:22 UTC NOAA

TAF LFRQ 280500Z 2806/2906 VRB02KT CAVOK
BECMG 2806/2808 22012KT
TEMPO 2821/2823 4500 RA BKN008
BECMG 2823/2901 25005KT

Example: see airport list